sensor_id;sensor_type;location;lat;lon;timestamp;temperature;humidity
32107;DHT22;18622;51.998;10.440;2023-06-19T03:30:43;19.50;91.10
32107;DHT22;18622;51.998;10.440;2023-06-19T03:33:11;19.40;91.30
32107;DHT22;18622;51.998;10.440;2023-06-19T03:35:39;19.40;91.30
32107;DHT22;18622;51.998;10.440;2023-06-19T03:38:07;19.40;91.30
32107;DHT22;18622;51.998;10.440;2023-06-19T03:40:35;19.50;91.30
32107;DHT22;18622;51.998;10.440;2023-06-19T03:43:02;19.40;91.10
32107;DHT22;18622;51.998;10.440;2023-06-19T03:45:30;19.50;90.90
32107;DHT22;18622;51.998;10.440;2023-06-19T03:47:58;19.50;90.80
32107;DHT22;18622;51.998;10.440;2023-06-19T03:50:26;19.40;91.20
32107;DHT22;18622;51.998;10.440;2023-06-19T03:52:54;19.40;91.60
32107;DHT22;18622;51.998;10.440;2023-06-19T03:55:21;19.30;92.00
32107;DHT22;18622;51.998;10.440;2023-06-19T03:57:49;19.20;92.70
32107;DHT22;18622;51.998;10.440;2023-06-19T04:00:17;19.10;92.90
32107;DHT22;18622;51.998;10.440;2023-06-19T04:02:45;19.10;93.40
32107;DHT22;18622;51.998;10.440;2023-06-19T04:05:14;19.10;93.70
32107;DHT22;18622;51.998;10.440;2023-06-19T04:07:46;19.00;94.00
32107;DHT22;18622;51.998;10.440;2023-06-19T04:10:14;19.10;94.10
32107;DHT22;18622;51.998;10.440;2023-06-19T04:12:41;19.10;94.30
32107;DHT22;18622;51.998;10.440;2023-06-19T04:15:11;19.10;94.70
32107;DHT22;18622;51.998;10.440;2023-06-19T04:17:39;19.10;95.20
32107;DHT22;18622;51.998;10.440;2023-06-19T04:20:07;19.20;95.40
32107;DHT22;18622;51.998;10.440;2023-06-19T04:22:40;19.20;95.70
32107;DHT22;18622;51.998;10.440;2023-06-19T04:25:10;19.20;96.00
32107;DHT22;18622;51.998;10.440;2023-06-19T04:27:38;19.20;96.00
32107;DHT22;18622;51.998;10.440;2023-06-19T04:30:06;19.30;96.20
32107;DHT22;18622;51.998;10.440;2023-06-19T04:32:34;19.30;96.20
32107;DHT22;18622;51.998;10.440;2023-06-19T04:35:02;19.40;96.40
32107;DHT22;18622;51.998;10.440;2023-06-19T04:37:31;19.40;96.70
32107;DHT22;18622;51.998;10.440;2023-06-19T04:39:58;19.40;96.90
32107;DHT22;18622;51.998;10.440;2023-06-19T04:42:26;19.30;97.10
32107;DHT22;18622;51.998;10.440;2023-06-19T04:44:54;19.20;97.60
32107;DHT22;18622;51.998;10.440;2023-06-19T04:47:23;19.20;98.00
32107;DHT22;18622;51.998;10.440;2023-06-19T04:49:51;19.10;98.30
32107;DHT22;18622;51.998;10.440;2023-06-19T04:52:19;19.00;99.00
32107;DHT22;18622;51.998;10.440;2023-06-19T04:54:46;19.00;99.20
32107;DHT22;18622;51.998;10.440;2023-06-19T04:57:15;19.00;99.40
32107;DHT22;18622;51.998;10.440;2023-06-19T04:59:43;19.10;99.80
32107;DHT22;18622;51.998;10.440;2023-06-19T05:02:11;19.10;99.90
32107;DHT22;18622;51.998;10.440;2023-06-19T05:04:39;19.10;99.90
32107;DHT22;18622;51.998;10.440;2023-06-19T05:07:09;19.10;99.90
32107;DHT22;18622;51.998;10.440;2023-06-19T05:09:37;19.10;99.90
32107;DHT22;18622;51.998;10.440;2023-06-19T05:12:05;19.10;99.90
32107;DHT22;18622;51.998;10.440;2023-06-19T05:14:33;19.20;99.90
32107;DHT22;18622;51.998;10.440;2023-06-19T05:17:00;19.10;99.90
32107;DHT22;18622;51.998;10.440;2023-06-19T05:19:28;19.20;99.90
32107;DHT22;18622;51.998;10.440;2023-06-19T05:21:56;19.20;99.90
32107;DHT22;18622;51.998;10.440;2023-06-19T05:24:24;19.20;99.90
32107;DHT22;18622;51.998;10.440;2023-06-19T05:26:52;19.20;99.90
32107;DHT22;18622;51.998;10.440;2023-06-19T05:29:20;19.30;99.90
32107;DHT22;18622;51.998;10.440;2023-06-19T05:31:48;19.30;99.90
32107;DHT22;18622;51.998;10.440;2023-06-19T05:34:16;19.40;99.90
32107;DHT22;18622;51.998;10.440;2023-06-19T05:36:44;19.40;99.90
32107;DHT22;18622;51.998;10.440;2023-06-19T05:39:13;19.50;99.90
32107;DHT22;18622;51.998;10.440;2023-06-19T05:41:41;19.60;99.90
32107;DHT22;18622;51.998;10.440;2023-06-19T05:44:14;19.60;99.90
32107;DHT22;18622;51.998;10.440;2023-06-19T05:46:42;19.70;99.90
32107;DHT22;18622;51.998;10.440;2023-06-19T05:49:10;19.70;99.90
32107;DHT22;18622;51.998;10.440;2023-06-19T05:51:38;19.80;99.90
32107;DHT22;18622;51.998;10.440;2023-06-19T05:54:06;19.90;99.90
32107;DHT22;18622;51.998;10.440;2023-06-19T05:56:33;20.10;99.90
32107;DHT22;18622;51.998;10.440;2023-06-19T05:59:02;20.30;99.90
32107;DHT22;18622;51.998;10.440;2023-06-19T06:01:30;20.40;99.90
32107;DHT22;18622;51.998;10.440;2023-06-19T06:03:58;20.50;99.90
32107;DHT22;18622;51.998;10.440;2023-06-19T06:06:27;20.50;99.90
32107;DHT22;18622;51.998;10.440;2023-06-19T06:08:55;20.50;99.90
32107;DHT22;18622;51.998;10.440;2023-06-19T06:11:23;20.40;99.90
32107;DHT22;18622;51.998;10.440;2023-06-19T06:13:51;20.40;99.90
32107;DHT22;18622;51.998;10.440;2023-06-19T06:16:18;20.40;99.90
32107;DHT22;18622;51.998;10.440;2023-06-19T06:18:46;20.40;99.90
32107;DHT22;18622;51.998;10.440;2023-06-19T06:21:14;20.50;99.90
32107;DHT22;18622;51.998;10.440;2023-06-19T06:23:42;20.50;99.90
32107;DHT22;18622;51.998;10.440;2023-06-19T06:26:11;20.60;99.90
32107;DHT22;18622;51.998;10.440;2023-06-19T06:28:39;20.70;99.90
32107;DHT22;18622;51.998;10.440;2023-06-19T06:31:07;20.70;99.80
32107;DHT22;18622;51.998;10.440;2023-06-19T06:33:34;20.70;99.70
32107;DHT22;18622;51.998;10.440;2023-06-19T06:36:02;20.80;99.70
32107;DHT22;18622;51.998;10.440;2023-06-19T06:38:30;20.90;99.70
32107;DHT22;18622;51.998;10.440;2023-06-19T06:40:58;20.90;99.90
32107;DHT22;18622;51.998;10.440;2023-06-19T06:43:26;21.00;99.90
32107;DHT22;18622;51.998;10.440;2023-06-19T06:45:53;21.10;99.90
32107;DHT22;18622;51.998;10.440;2023-06-19T06:48:21;21.20;99.80
32107;DHT22;18622;51.998;10.440;2023-06-19T06:50:49;21.30;99.80
32107;DHT22;18622;51.998;10.440;2023-06-19T06:53:17;21.50;99.60
32107;DHT22;18622;51.998;10.440;2023-06-19T06:55:45;21.60;99.30
32107;DHT22;18622;51.998;10.440;2023-06-19T06:58:13;21.80;99.10
32107;DHT22;18622;51.998;10.440;2023-06-19T07:00:41;22.00;99.10
32107;DHT22;18622;51.998;10.440;2023-06-19T07:03:09;22.20;98.80
32107;DHT22;18622;51.998;10.440;2023-06-19T07:05:36;22.60;98.40
32107;DHT22;18622;51.998;10.440;2023-06-19T07:08:04;22.90;98.00
32107;DHT22;18622;51.998;10.440;2023-06-19T07:10:32;23.30;97.80
32107;DHT22;18622;51.998;10.440;2023-06-19T07:13:00;23.70;97.60
32107;DHT22;18622;51.998;10.440;2023-06-19T07:15:28;24.20;97.20
32107;DHT22;18622;51.998;10.440;2023-06-19T07:17:56;24.50;96.30
32107;DHT22;18622;51.998;10.440;2023-06-19T07:20:24;24.90;95.70
32107;DHT22;18622;51.998;10.440;2023-06-19T07:22:53;25.10;95.40
32107;DHT22;18622;51.998;10.440;2023-06-19T07:25:22;25.40;94.50
32107;DHT22;18622;51.998;10.440;2023-06-19T07:27:51;25.80;94.50
32107;DHT22;18622;51.998;10.440;2023-06-19T07:30:19;26.20;93.40
32107;DHT22;18622;51.998;10.440;2023-06-19T07:32:47;26.60;93.50
32107;DHT22;18622;51.998;10.440;2023-06-19T07:35:15;26.90;93.00
32107;DHT22;18622;51.998;10.440;2023-06-19T07:37:43;27.30;92.50
32107;DHT22;18622;51.998;10.440;2023-06-19T07:40:11;27.50;91.50
32107;DHT22;18622;51.998;10.440;2023-06-19T07:42:39;27.60;91.40
32107;DHT22;18622;51.998;10.440;2023-06-19T07:45:08;27.60;90.60
32107;DHT22;18622;51.998;10.440;2023-06-19T07:47:35;27.50;91.20
32107;DHT22;18622;51.998;10.440;2023-06-19T07:50:03;27.60;90.90
32107;DHT22;18622;51.998;10.440;2023-06-19T07:52:31;27.70;90.60
32107;DHT22;18622;51.998;10.440;2023-06-19T07:54:59;27.80;90.40
32107;DHT22;18622;51.998;10.440;2023-06-19T07:57:27;27.80;90.10
32107;DHT22;18622;51.998;10.440;2023-06-19T07:59:55;27.90;89.10
32107;DHT22;18622;51.998;10.440;2023-06-19T08:02:23;27.80;88.80
32107;DHT22;18622;51.998;10.440;2023-06-19T08:04:51;27.70;88.90
32107;DHT22;18622;51.998;10.440;2023-06-19T08:07:18;27.70;89.90
32107;DHT22;18622;51.998;10.440;2023-06-19T08:09:46;27.80;90.30
32107;DHT22;18622;51.998;10.440;2023-06-19T08:12:15;27.80;89.60
32107;DHT22;18622;51.998;10.440;2023-06-19T08:14:43;27.90;89.30
32107;DHT22;18622;51.998;10.440;2023-06-19T08:17:11;28.00;89.80
32107;DHT22;18622;51.998;10.440;2023-06-19T08:19:38;28.10;87.10
32107;DHT22;18622;51.998;10.440;2023-06-19T08:22:06;28.40;87.30
32107;DHT22;18622;51.998;10.440;2023-06-19T08:24:37;28.70;87.60
32107;DHT22;18622;51.998;10.440;2023-06-19T08:27:07;29.10;87.00
32107;DHT22;18622;51.998;10.440;2023-06-19T08:29:35;29.30;83.90
32107;DHT22;18622;51.998;10.440;2023-06-19T08:32:03;29.40;81.90
32107;DHT22;18622;51.998;10.440;2023-06-19T08:34:31;29.40;82.30
32107;DHT22;18622;51.998;10.440;2023-06-19T08:36:59;29.60;82.00
32107;DHT22;18622;51.998;10.440;2023-06-19T08:39:26;29.60;80.60
32107;DHT22;18622;51.998;10.440;2023-06-19T08:41:54;29.60;78.20
32107;DHT22;18622;51.998;10.440;2023-06-19T08:44:22;29.60;79.10
32107;DHT22;18622;51.998;10.440;2023-06-19T08:46:50;29.50;80.80
32107;DHT22;18622;51.998;10.440;2023-06-19T08:49:18;29.50;81.10
32107;DHT22;18622;51.998;10.440;2023-06-19T08:51:46;29.50;81.20
32107;DHT22;18622;51.998;10.440;2023-06-19T08:54:13;29.60;80.60
32107;DHT22;18622;51.998;10.440;2023-06-19T08:56:41;29.70;81.00
32107;DHT22;18622;51.998;10.440;2023-06-19T08:59:12;30.00;79.40
32107;DHT22;18622;51.998;10.440;2023-06-19T09:01:40;30.10;79.20
32107;DHT22;18622;51.998;10.440;2023-06-19T09:04:12;30.30;77.60
32107;DHT22;18622;51.998;10.440;2023-06-19T09:06:56;30.30;76.40
32107;DHT22;18622;51.998;10.440;2023-06-19T09:09:25;30.50;76.80
32107;DHT22;18622;51.998;10.440;2023-06-19T09:12:01;30.60;77.20
32107;DHT22;18622;51.998;10.440;2023-06-19T09:14:34;30.90;77.20
32107;DHT22;18622;51.998;10.440;2023-06-19T09:17:10;31.50;74.90
32107;DHT22;18622;51.998;10.440;2023-06-19T09:19:36;32.10;70.40
32107;DHT22;18622;51.998;10.440;2023-06-19T09:22:06;32.60;70.00
32107;DHT22;18622;51.998;10.440;2023-06-19T09:24:41;32.90;69.80
32107;DHT22;18622;51.998;10.440;2023-06-19T09:27:13;33.20;68.70
32107;DHT22;18622;51.998;10.440;2023-06-19T09:29:42;33.50;66.90
32107;DHT22;18622;51.998;10.440;2023-06-19T09:32:24;34.00;66.50
32107;DHT22;18622;51.998;10.440;2023-06-19T09:34:54;34.30;64.60
32107;DHT22;18622;51.998;10.440;2023-06-19T09:37:26;34.50;62.10
32107;DHT22;18622;51.998;10.440;2023-06-19T09:40:01;34.50;56.20
32107;DHT22;18622;51.998;10.440;2023-06-19T09:42:40;34.50;55.10
32107;DHT22;18622;51.998;10.440;2023-06-19T09:45:12;34.60;52.60
32107;DHT22;18622;51.998;10.440;2023-06-19T09:47:46;34.50;52.60
32107;DHT22;18622;51.998;10.440;2023-06-19T09:50:15;34.40;52.80
32107;DHT22;18622;51.998;10.440;2023-06-19T09:52:44;34.40;49.90
32107;DHT22;18622;51.998;10.440;2023-06-19T09:55:13;34.20;48.20
32107;DHT22;18622;51.998;10.440;2023-06-19T09:57:42;34.40;48.50
32107;DHT22;18622;51.998;10.440;2023-06-19T10:00:11;34.50;49.10
32107;DHT22;18622;51.998;10.440;2023-06-19T10:02:42;35.00;48.10
32107;DHT22;18622;51.998;10.440;2023-06-19T10:05:10;35.30;48.00
32107;DHT22;18622;51.998;10.440;2023-06-19T10:07:45;35.60;47.50
32107;DHT22;18622;51.998;10.440;2023-06-19T10:10:24;35.70;44.40
32107;DHT22;18622;51.998;10.440;2023-06-19T10:12:55;35.60;45.60
32107;DHT22;18622;51.998;10.440;2023-06-19T10:15:24;35.60;44.60
32107;DHT22;18622;51.998;10.440;2023-06-19T10:17:58;35.60;45.70
32107;DHT22;18622;51.998;10.440;2023-06-19T10:20:31;35.70;45.60
32107;DHT22;18622;51.998;10.440;2023-06-19T10:23:05;36.00;45.50
32107;DHT22;18622;51.998;10.440;2023-06-19T10:25:35;36.40;44.20
32107;DHT22;18622;51.998;10.440;2023-06-19T10:28:03;36.90;42.60
32107;DHT22;18622;51.998;10.440;2023-06-19T10:30:33;37.20;42.70
32107;DHT22;18622;51.998;10.440;2023-06-19T10:33:03;37.20;42.60
32107;DHT22;18622;51.998;10.440;2023-06-19T10:35:39;36.90;42.00
32107;DHT22;18622;51.998;10.440;2023-06-19T10:38:07;36.60;41.80
32107;DHT22;18622;51.998;10.440;2023-06-19T10:40:37;36.30;42.70
32107;DHT22;18622;51.998;10.440;2023-06-19T10:43:05;35.90;43.10
32107;DHT22;18622;51.998;10.440;2023-06-19T10:45:32;35.90;42.60
32107;DHT22;18622;51.998;10.440;2023-06-19T10:48:04;36.20;43.70
32107;DHT22;18622;51.998;10.440;2023-06-19T10:50:37;36.70;43.60
32107;DHT22;18622;51.998;10.440;2023-06-19T10:53:05;37.10;42.90
32107;DHT22;18622;51.998;10.440;2023-06-19T10:55:33;37.00;41.70
32107;DHT22;18622;51.998;10.440;2023-06-19T10:58:01;36.90;42.30
32107;DHT22;18622;51.998;10.440;2023-06-19T11:00:30;37.00;42.40
32107;DHT22;18622;51.998;10.440;2023-06-19T11:02:58;37.60;42.80
32107;DHT22;18622;51.998;10.440;2023-06-19T11:05:27;38.40;40.40
32107;DHT22;18622;51.998;10.440;2023-06-19T11:07:57;38.80;40.50
32107;DHT22;18622;51.998;10.440;2023-06-19T11:10:28;39.00;40.10
32107;DHT22;18622;51.998;10.440;2023-06-19T11:12:56;39.50;39.90
32107;DHT22;18622;51.998;10.440;2023-06-19T11:15:36;39.70;39.70
32107;DHT22;18622;51.998;10.440;2023-06-19T11:18:01;39.50;39.00
32107;DHT22;18622;51.998;10.440;2023-06-19T11:20:29;39.30;39.40
32107;DHT22;18622;51.998;10.440;2023-06-19T11:23:01;39.30;39.20
32107;DHT22;18622;51.998;10.440;2023-06-19T11:25:40;39.50;39.70
32107;DHT22;18622;51.998;10.440;2023-06-19T11:28:12;40.00;39.90
32107;DHT22;18622;51.998;10.440;2023-06-19T11:30:41;40.50;40.20
32107;DHT22;18622;51.998;10.440;2023-06-19T11:33:18;40.90;38.70
32107;DHT22;18622;51.998;10.440;2023-06-19T11:35:55;40.80;39.00
32107;DHT22;18622;51.998;10.440;2023-06-19T11:38:20;40.40;37.90
32107;DHT22;18622;51.998;10.440;2023-06-19T11:40:48;39.60;38.90
32107;DHT22;18622;51.998;10.440;2023-06-19T11:43:32;39.50;39.50
32107;DHT22;18622;51.998;10.440;2023-06-19T11:46:04;39.50;39.90
32107;DHT22;18622;51.998;10.440;2023-06-19T11:48:32;39.90;39.50
32107;DHT22;18622;51.998;10.440;2023-06-19T11:50:59;40.10;38.90
32107;DHT22;18622;51.998;10.440;2023-06-19T11:53:27;40.40;39.20
32107;DHT22;18622;51.998;10.440;2023-06-19T11:55:55;40.90;38.70
32107;DHT22;18622;51.998;10.440;2023-06-19T11:58:23;41.40;37.50
32107;DHT22;18622;51.998;10.440;2023-06-19T12:00:52;41.70;37.00
32107;DHT22;18622;51.998;10.440;2023-06-19T12:05:51;41.50;37.40
32107;DHT22;18622;51.998;10.440;2023-06-19T12:08:18;41.10;38.70
32107;DHT22;18622;51.998;10.440;2023-06-19T12:10:46;40.60;38.10
32107;DHT22;18622;51.998;10.440;2023-06-19T12:13:14;40.00;39.30
32107;DHT22;18622;51.998;10.440;2023-06-19T12:15:42;39.50;39.30
32107;DHT22;18622;51.998;10.440;2023-06-19T12:18:10;39.30;40.50
32107;DHT22;18622;51.998;10.440;2023-06-19T12:20:39;39.50;39.80
32107;DHT22;18622;51.998;10.440;2023-06-19T12:23:06;40.10;40.50
32107;DHT22;18622;51.998;10.440;2023-06-19T12:25:35;41.30;39.20
32107;DHT22;18622;51.998;10.440;2023-06-19T12:28:02;42.30;38.40
32107;DHT22;18622;51.998;10.440;2023-06-19T12:30:32;42.70;39.00
32107;DHT22;18622;51.998;10.440;2023-06-19T12:32:59;43.30;37.90
32107;DHT22;18622;51.998;10.440;2023-06-19T12:35:27;44.30;36.60
32107;DHT22;18622;51.998;10.440;2023-06-19T12:37:55;45.00;36.40
32107;DHT22;18622;51.998;10.440;2023-06-19T12:40:22;45.50;36.30
32107;DHT22;18622;51.998;10.440;2023-06-19T12:42:50;45.70;35.80
32107;DHT22;18622;51.998;10.440;2023-06-19T12:45:17;45.80;35.90
32107;DHT22;18622;51.998;10.440;2023-06-19T12:47:45;45.70;34.80
32107;DHT22;18622;51.998;10.440;2023-06-19T12:50:12;45.50;35.30
32107;DHT22;18622;51.998;10.440;2023-06-19T12:52:40;45.20;35.70
32107;DHT22;18622;51.998;10.440;2023-06-19T12:55:08;45.00;35.00
32107;DHT22;18622;51.998;10.440;2023-06-19T12:57:35;44.70;36.00
32107;DHT22;18622;51.998;10.440;2023-06-19T13:00:04;44.20;36.30
32107;DHT22;18622;51.998;10.440;2023-06-19T13:02:34;43.90;37.00
32107;DHT22;18622;51.998;10.440;2023-06-19T13:05:01;44.30;36.10
32107;DHT22;18622;51.998;10.440;2023-06-19T13:07:29;44.70;36.30
32107;DHT22;18622;51.998;10.440;2023-06-19T13:09:57;44.90;35.70
32107;DHT22;18622;51.998;10.440;2023-06-19T13:12:25;45.00;36.40
32107;DHT22;18622;51.998;10.440;2023-06-19T13:14:53;45.10;35.50
32107;DHT22;18622;51.998;10.440;2023-06-19T13:17:21;44.80;35.80
32107;DHT22;18622;51.998;10.440;2023-06-19T13:19:48;44.40;36.10
32107;DHT22;18622;51.998;10.440;2023-06-19T13:22:16;44.30;36.90
32107;DHT22;18622;51.998;10.440;2023-06-19T13:24:44;44.30;36.60
32107;DHT22;18622;51.998;10.440;2023-06-19T13:27:11;44.40;37.20
32107;DHT22;18622;51.998;10.440;2023-06-19T13:29:39;44.40;36.10
32107;DHT22;18622;51.998;10.440;2023-06-19T13:32:07;44.20;36.50
32107;DHT22;18622;51.998;10.440;2023-06-19T13:34:35;44.10;36.60
32107;DHT22;18622;51.998;10.440;2023-06-19T13:37:02;44.20;36.80
32107;DHT22;18622;51.998;10.440;2023-06-19T13:39:30;44.30;37.20
32107;DHT22;18622;51.998;10.440;2023-06-19T13:41:58;44.30;35.90
32107;DHT22;18622;51.998;10.440;2023-06-19T13:44:28;44.20;35.80
32107;DHT22;18622;51.998;10.440;2023-06-19T13:46:55;43.90;36.40
32107;DHT22;18622;51.998;10.440;2023-06-19T13:49:23;43.50;37.40
32107;DHT22;18622;51.998;10.440;2023-06-19T13:51:50;43.30;36.80
32107;DHT22;18622;51.998;10.440;2023-06-19T13:54:18;43.10;37.30
32107;DHT22;18622;51.998;10.440;2023-06-19T13:56:48;42.90;38.10
32107;DHT22;18622;51.998;10.440;2023-06-19T13:59:17;42.90;37.60
32107;DHT22;18622;51.998;10.440;2023-06-19T14:01:45;42.80;38.10
32107;DHT22;18622;51.998;10.440;2023-06-19T14:04:12;42.60;38.90
32107;DHT22;18622;51.998;10.440;2023-06-19T14:06:42;42.70;38.20
32107;DHT22;18622;51.998;10.440;2023-06-19T14:09:09;43.00;38.70
32107;DHT22;18622;51.998;10.440;2023-06-19T14:11:37;43.40;38.10
32107;DHT22;18622;51.998;10.440;2023-06-19T14:14:04;43.70;38.10
32107;DHT22;18622;51.998;10.440;2023-06-19T14:16:32;43.80;38.00
32107;DHT22;18622;51.998;10.440;2023-06-19T14:19:00;43.80;37.90
32107;DHT22;18622;51.998;10.440;2023-06-19T14:21:28;43.90;37.30
32107;DHT22;18622;51.998;10.440;2023-06-19T14:23:56;43.80;37.60
32107;DHT22;18622;51.998;10.440;2023-06-19T14:26:23;43.50;37.10
32107;DHT22;18622;51.998;10.440;2023-06-19T14:28:51;42.80;38.70
32107;DHT22;18622;51.998;10.440;2023-06-19T14:31:20;42.50;38.80
32107;DHT22;18622;51.998;10.440;2023-06-19T14:33:48;42.50;39.10
32107;DHT22;18622;51.998;10.440;2023-06-19T14:36:15;42.50;38.70
32107;DHT22;18622;51.998;10.440;2023-06-19T14:38:43;42.10;39.00
32107;DHT22;18622;51.998;10.440;2023-06-19T14:41:10;41.50;39.50
32107;DHT22;18622;51.998;10.440;2023-06-19T14:43:38;41.10;40.00
32107;DHT22;18622;51.998;10.440;2023-06-19T14:46:05;40.90;40.20
32107;DHT22;18622;51.998;10.440;2023-06-19T14:48:33;40.80;41.30
32107;DHT22;18622;51.998;10.440;2023-06-19T14:51:00;40.70;40.20
32107;DHT22;18622;51.998;10.440;2023-06-19T14:53:31;40.70;40.10
32107;DHT22;18622;51.998;10.440;2023-06-19T14:55:59;40.80;39.60
32107;DHT22;18622;51.998;10.440;2023-06-19T14:58:27;40.40;40.30
32107;DHT22;18622;51.998;10.440;2023-06-19T15:00:55;39.90;40.00
32107;DHT22;18622;51.998;10.440;2023-06-19T15:03:24;39.10;40.60
32107;DHT22;18622;51.998;10.440;2023-06-19T15:05:53;38.30;41.30
32107;DHT22;18622;51.998;10.440;2023-06-19T15:08:20;37.80;43.00
32107;DHT22;18622;51.998;10.440;2023-06-19T15:10:49;37.60;43.80
32107;DHT22;18622;51.998;10.440;2023-06-19T15:13:16;37.90;43.30
32107;DHT22;18622;51.998;10.440;2023-06-19T15:15:44;38.20;42.10
32107;DHT22;18622;51.998;10.440;2023-06-19T15:18:13;38.30;41.70
32107;DHT22;18622;51.998;10.440;2023-06-19T15:20:40;38.20;42.70
32107;DHT22;18622;51.998;10.440;2023-06-19T15:23:09;38.20;42.80
32107;DHT22;18622;51.998;10.440;2023-06-19T15:25:36;38.40;42.80
32107;DHT22;18622;51.998;10.440;2023-06-19T15:28:04;38.60;42.70
32107;DHT22;18622;51.998;10.440;2023-06-19T15:30:32;38.80;42.00
32107;DHT22;18622;51.998;10.440;2023-06-19T15:33:00;38.80;41.90
32107;DHT22;18622;51.998;10.440;2023-06-19T15:35:28;38.50;41.30
32107;DHT22;18622;51.998;10.440;2023-06-19T15:37:56;37.90;41.70
32107;DHT22;18622;51.998;10.440;2023-06-19T15:40:25;37.40;42.10
32107;DHT22;18622;51.998;10.440;2023-06-19T15:42:54;36.80;42.60
32107;DHT22;18622;51.998;10.440;2023-06-19T15:45:22;36.40;44.70
32107;DHT22;18622;51.998;10.440;2023-06-19T15:47:50;36.10;44.70
32107;DHT22;18622;51.998;10.440;2023-06-19T15:50:19;36.00;44.40
32107;DHT22;18622;51.998;10.440;2023-06-19T15:52:47;35.90;44.60
32107;DHT22;18622;51.998;10.440;2023-06-19T15:55:14;35.80;44.80
32107;DHT22;18622;51.998;10.440;2023-06-19T15:57:42;35.70;45.30
32107;DHT22;18622;51.998;10.440;2023-06-19T16:00:11;35.30;45.90
32107;DHT22;18622;51.998;10.440;2023-06-19T16:02:41;35.30;46.20
32107;DHT22;18622;51.998;10.440;2023-06-19T16:05:10;35.60;46.10
32107;DHT22;18622;51.998;10.440;2023-06-19T16:07:38;36.00;45.70
32107;DHT22;18622;51.998;10.440;2023-06-19T16:10:07;36.10;44.70
32107;DHT22;18622;51.998;10.440;2023-06-19T16:12:35;36.00;44.60
32107;DHT22;18622;51.998;10.440;2023-06-19T16:15:04;35.80;44.10
32107;DHT22;18622;51.998;10.440;2023-06-19T16:17:32;35.70;44.60
32107;DHT22;18622;51.998;10.440;2023-06-19T16:19:59;36.10;44.30
32107;DHT22;18622;51.998;10.440;2023-06-19T16:22:27;36.30;43.80
32107;DHT22;18622;51.998;10.440;2023-06-19T16:24:54;36.00;43.40
32107;DHT22;18622;51.998;10.440;2023-06-19T16:27:22;35.40;44.30
32107;DHT22;18622;51.998;10.440;2023-06-19T16:29:49;34.90;44.90
32107;DHT22;18622;51.998;10.440;2023-06-19T16:32:17;34.80;45.40
32107;DHT22;18622;51.998;10.440;2023-06-19T16:34:46;34.90;45.30
32107;DHT22;18622;51.998;10.440;2023-06-19T16:37:13;35.40;44.70
32107;DHT22;18622;51.998;10.440;2023-06-19T16:39:41;36.30;43.80
32107;DHT22;18622;51.998;10.440;2023-06-19T16:42:09;37.00;42.60
32107;DHT22;18622;51.998;10.440;2023-06-19T16:44:37;37.20;42.10
32107;DHT22;18622;51.998;10.440;2023-06-19T16:47:06;37.10;42.30
32107;DHT22;18622;51.998;10.440;2023-06-19T16:49:34;36.80;41.90
32107;DHT22;18622;51.998;10.440;2023-06-19T16:52:02;36.40;42.20
32107;DHT22;18622;51.998;10.440;2023-06-19T16:54:29;36.10;42.40
32107;DHT22;18622;51.998;10.440;2023-06-19T16:56:57;35.70;43.10
32107;DHT22;18622;51.998;10.440;2023-06-19T16:59:24;35.40;43.90
32107;DHT22;18622;51.998;10.440;2023-06-19T17:01:52;35.30;43.80
32107;DHT22;18622;51.998;10.440;2023-06-19T17:04:20;35.20;44.90
32107;DHT22;18622;51.998;10.440;2023-06-19T17:06:47;35.30;44.30
32107;DHT22;18622;51.998;10.440;2023-06-19T17:09:15;35.20;45.00
32107;DHT22;18622;51.998;10.440;2023-06-19T17:11:42;35.10;45.60
32107;DHT22;18622;51.998;10.440;2023-06-19T17:14:10;35.40;45.90
32107;DHT22;18622;51.998;10.440;2023-06-19T17:16:37;35.70;46.00
32107;DHT22;18622;51.998;10.440;2023-06-19T17:19:05;35.90;45.80
32107;DHT22;18622;51.998;10.440;2023-06-19T17:21:33;35.90;45.00
32107;DHT22;18622;51.998;10.440;2023-06-19T17:24:00;35.60;45.20
32107;DHT22;18622;51.998;10.440;2023-06-19T17:26:28;35.00;46.10
32107;DHT22;18622;51.998;10.440;2023-06-19T17:28:56;34.30;47.30
32107;DHT22;18622;51.998;10.440;2023-06-19T17:31:24;33.70;47.40
32107;DHT22;18622;51.998;10.440;2023-06-19T17:33:52;33.20;47.80
32107;DHT22;18622;51.998;10.440;2023-06-19T17:36:20;32.70;48.70
32107;DHT22;18622;51.998;10.440;2023-06-19T17:38:48;32.30;49.90
32107;DHT22;18622;51.998;10.440;2023-06-19T17:41:16;31.90;50.50
32107;DHT22;18622;51.998;10.440;2023-06-19T17:43:44;31.70;50.70
32107;DHT22;18622;51.998;10.440;2023-06-19T17:46:12;31.40;51.00
32107;DHT22;18622;51.998;10.440;2023-06-19T17:48:40;31.20;51.30
32107;DHT22;18622;51.998;10.440;2023-06-19T17:51:07;31.10;51.70
32107;DHT22;18622;51.998;10.440;2023-06-19T17:53:35;30.90;52.00
32107;DHT22;18622;51.998;10.440;2023-06-19T17:56:03;30.70;52.50
32107;DHT22;18622;51.998;10.440;2023-06-19T17:58:32;30.50;52.70
32107;DHT22;18622;51.998;10.440;2023-06-19T18:01:00;30.40;52.90
32107;DHT22;18622;51.998;10.440;2023-06-19T18:03:27;30.20;53.70
32107;DHT22;18622;51.998;10.440;2023-06-19T18:05:56;30.00;55.00
32107;DHT22;18622;51.998;10.440;2023-06-19T18:08:23;29.80;55.10
32107;DHT22;18622;51.998;10.440;2023-06-19T18:10:51;29.70;55.90
32107;DHT22;18622;51.998;10.440;2023-06-19T18:13:19;29.60;55.80
32107;DHT22;18622;51.998;10.440;2023-06-19T18:15:47;29.40;55.80
32107;DHT22;18622;51.998;10.440;2023-06-19T18:18:15;29.30;56.30
32107;DHT22;18622;51.998;10.440;2023-06-19T18:20:43;29.20;56.00
32107;DHT22;18622;51.998;10.440;2023-06-19T18:23:11;29.00;56.80
32107;DHT22;18622;51.998;10.440;2023-06-19T18:25:38;28.80;56.90
32107;DHT22;18622;51.998;10.440;2023-06-19T18:28:06;28.70;57.50
32107;DHT22;18622;51.998;10.440;2023-06-19T18:30:34;28.50;58.00
32107;DHT22;18622;51.998;10.440;2023-06-19T18:33:02;28.40;58.70
32107;DHT22;18622;51.998;10.440;2023-06-19T18:35:30;28.20;58.70
32107;DHT22;18622;51.998;10.440;2023-06-19T18:37:59;28.00;59.20
32107;DHT22;18622;51.998;10.440;2023-06-19T18:40:27;27.90;59.30
32107;DHT22;18622;51.998;10.440;2023-06-19T18:42:55;27.70;60.20
32107;DHT22;18622;51.998;10.440;2023-06-19T18:45:23;27.50;60.70
32107;DHT22;18622;51.998;10.440;2023-06-19T18:47:50;27.30;61.60
32107;DHT22;18622;51.998;10.440;2023-06-19T18:50:18;27.00;62.30
32107;DHT22;18622;51.998;10.440;2023-06-19T18:52:46;26.70;63.10
32107;DHT22;18622;51.998;10.440;2023-06-19T18:55:14;26.50;63.90